createdAt,value
2018-09-18T00:01:28.681Z,4.90
2018-09-18T00:03:57.331Z,5.20
2018-09-18T00:06:26.534Z,5.05
2018-09-18T00:08:54.843Z,5.30
2018-09-18T00:11:23.090Z,4.97
2018-09-18T00:13:51.315Z,5.10
2018-09-18T00:16:19.900Z,5.08
2018-09-18T00:18:48.134Z,4.70
2018-09-18T00:21:16.549Z,5.12
2018-09-18T00:23:45.190Z,5.15
2018-09-18T00:26:13.418Z,4.80
2018-09-18T00:28:41.669Z,4.53
2018-09-18T00:31:10.730Z,5.10
2018-09-18T00:33:38.946Z,4.67
2018-09-18T00:36:07.278Z,5.08
2018-09-18T00:38:35.658Z,4.47
2018-09-18T00:41:03.954Z,4.83
2018-09-18T00:43:32.190Z,4.22
2018-09-18T00:46:00.502Z,4.97
2018-09-18T00:48:28.715Z,4.90
2018-09-18T00:50:56.997Z,4.35
2018-09-18T00:53:25.775Z,4.50
2018-09-18T00:55:53.989Z,4.67
2018-09-18T00:58:22.314Z,5.25
2018-09-18T01:00:50.895Z,4.50
2018-09-18T01:03:19.277Z,4.60
2018-09-18T01:05:47.694Z,4.75
2018-09-18T01:08:16.825Z,4.50
2018-09-18T01:10:45.063Z,4.58
2018-09-18T01:13:13.276Z,4.30
2018-09-18T01:15:42.384Z,4.65
2018-09-18T01:18:10.686Z,4.85
2018-09-18T01:20:38.989Z,4.50
2018-09-18T01:23:07.618Z,4.03
2018-09-18T01:25:35.863Z,4.20
2018-09-18T01:28:04.410Z,4.03
2018-09-18T01:30:34.194Z,4.25
2018-09-18T01:33:02.447Z,4.22
2018-09-18T01:35:30.677Z,4.08
2018-09-18T01:37:59.941Z,4.45
2018-09-18T01:40:28.157Z,4.15
2018-09-18T01:42:56.470Z,4.28
2018-09-18T01:45:24.914Z,4.30
2018-09-18T01:47:53.208Z,4.42
2018-09-18T01:50:21.431Z,4.47
2018-09-18T01:52:50.010Z,4.47
2018-09-18T01:55:18.222Z,4.33
2018-09-18T01:57:46.446Z,4.50
2018-09-18T02:00:16.692Z,3.80
2018-09-18T02:02:44.985Z,4.15
2018-09-18T02:05:18.866Z,4.10
2018-09-18T02:07:47.078Z,4.05
2018-09-18T02:10:15.849Z,4.20
2018-09-18T02:12:44.730Z,4.03
2018-09-18T02:15:12.954Z,4.10
2018-09-18T02:17:41.173Z,3.98
2018-09-18T02:20:09.770Z,3.90
2018-09-18T02:22:38.002Z,3.95
2018-09-18T02:25:06.246Z,4.00
2018-09-18T02:27:34.797Z,4.10
2018-09-18T02:30:03.066Z,3.55
2018-09-18T02:32:31.448Z,3.95
2018-09-18T02:35:00.049Z,4.03
2018-09-18T02:37:28.289Z,3.75
2018-09-18T02:39:56.597Z,4.08
2018-09-18T02:42:24.890Z,4.00
2018-09-18T02:44:53.194Z,3.85
2018-09-18T02:47:21.422Z,3.70
2018-09-18T02:49:50.618Z,3.35
2018-09-18T02:52:19.345Z,3.80
2018-09-18T02:54:47.573Z,3.45
2018-09-18T02:57:15.858Z,3.67
2018-09-18T02:59:44.242Z,3.47
2018-09-18T03:02:12.554Z,3.70
2018-09-18T03:04:41.508Z,3.70
2018-09-18T03:07:09.729Z,3.67
2018-09-18T03:09:37.938Z,3.62
2018-09-18T03:12:06.594Z,3.30
2018-09-18T03:14:34.819Z,3.60
2018-09-18T03:17:03.035Z,3.47
2018-09-18T03:19:31.342Z,3.55
2018-09-18T03:21:59.589Z,3.62
2018-09-18T03:24:27.838Z,3.50
2018-09-18T03:26:57.038Z,3.52
2018-09-18T03:29:25.331Z,3.90
2018-09-18T03:31:53.633Z,3.37
2018-09-18T03:34:22.367Z,3.30
2018-09-18T03:36:51.010Z,3.47
2018-09-18T03:39:19.218Z,3.37
2018-09-18T03:41:47.720Z,3.33
2018-09-18T03:44:16.014Z,3.30
2018-09-18T03:46:44.236Z,3.33
2018-09-18T03:49:13.254Z,3.55
2018-09-18T03:51:41.545Z,3.47
2018-09-18T03:54:09.866Z,3.35
2018-09-18T03:56:38.389Z,3.27
2018-09-18T03:59:06.619Z,3.17
2018-09-18T04:01:34.984Z,3.30
2018-09-18T04:04:03.598Z,3.40
2018-09-18T04:06:31.891Z,3.33
2018-09-18T04:09:00.186Z,3.40
2018-09-18T04:11:29.079Z,3.00
2018-09-18T04:13:57.849Z,3.30
2018-09-18T04:16:26.083Z,3.05
2018-09-18T04:18:54.737Z,3.22
2018-09-18T04:21:27.185Z,3.08
2018-09-18T04:23:55.634Z,3.50
2018-09-18T04:26:23.861Z,3.10
2018-09-18T04:28:52.161Z,3.08
2018-09-18T04:31:21.234Z,2.90
2018-09-18T04:33:49.450Z,2.85
2018-09-18T04:36:17.782Z,2.87
2018-09-18T04:38:46.267Z,2.95
2018-09-18T04:41:14.573Z,3.05
2018-09-18T04:43:42.879Z,3.30
2018-09-18T04:46:12.240Z,3.05
2018-09-18T04:48:40.473Z,3.15
2018-09-18T04:51:08.823Z,3.30
2018-09-18T04:53:37.920Z,3.02
2018-09-18T04:56:06.190Z,3.02
2018-09-18T04:58:34.421Z,3.40
2018-09-18T05:01:03.124Z,3.35
2018-09-18T05:03:33.137Z,3.00
2018-09-18T05:06:01.883Z,3.20
2018-09-18T05:08:30.122Z,2.90
2018-09-18T05:10:58.506Z,3.12
2018-09-18T05:13:27.058Z,3.42
2018-09-18T05:15:55.806Z,3.15
2018-09-18T05:18:24.027Z,3.08
2018-09-18T05:20:52.939Z,3.37
2018-09-18T05:23:21.186Z,3.58
2018-09-18T05:25:49.891Z,3.12
2018-09-18T05:28:18.566Z,3.00
2018-09-18T05:30:46.799Z,3.25
2018-09-18T05:33:15.039Z,3.40
2018-09-18T05:35:43.557Z,3.77
2018-09-18T05:38:11.902Z,3.52
2018-09-18T05:40:40.201Z,3.25
2018-09-18T05:43:09.048Z,3.45
2018-09-18T05:45:37.292Z,3.40
2018-09-18T05:48:05.811Z,3.55
2018-09-18T05:50:34.309Z,3.30
2018-09-18T05:53:02.542Z,3.37
2018-09-18T05:55:30.778Z,3.37
2018-09-18T05:57:59.097Z,3.90
2018-09-18T06:00:27.415Z,3.65
2018-09-18T06:02:55.655Z,3.22
2018-09-18T06:05:24.874Z,3.20
2018-09-18T06:07:53.100Z,3.50
2018-09-18T06:10:21.566Z,3.45
2018-09-18T06:12:49.906Z,3.42
2018-09-18T06:15:18.226Z,3.40
2018-09-18T06:17:47.566Z,3.62
2018-09-18T06:20:15.842Z,3.20
2018-09-18T06:22:44.094Z,3.10
2018-09-18T06:25:12.395Z,3.40
2018-09-18T06:27:41.206Z,3.08
2018-09-18T06:30:09.471Z,3.30
2018-09-18T06:32:37.681Z,3.00
2018-09-18T06:35:05.956Z,3.10
2018-09-18T06:37:34.178Z,3.15
2018-09-18T06:40:02.561Z,3.22
2018-09-18T06:42:31.174Z,3.02
2018-09-18T06:44:59.405Z,3.12
2018-09-18T06:47:27.635Z,2.92
2018-09-18T06:49:57.455Z,3.12
2018-09-18T06:52:25.666Z,3.20
2018-09-18T06:54:53.886Z,2.90
2018-09-18T06:57:22.231Z,3.00
2018-09-18T06:59:50.458Z,3.12
2018-09-18T07:02:19.234Z,3.10
2018-09-18T07:04:47.526Z,3.30
2018-09-18T07:07:15.754Z,3.15
2018-09-18T07:09:44.671Z,3.02
2018-09-18T07:12:12.905Z,3.12
2018-09-18T07:14:41.230Z,3.12
2018-09-18T07:17:09.814Z,3.17
2018-09-18T07:19:39.205Z,3.20
2018-09-18T07:22:07.482Z,3.12
2018-09-18T07:24:35.866Z,3.02
2018-09-18T07:27:04.122Z,2.72
2018-09-18T07:29:32.452Z,2.80
2018-09-18T07:32:01.311Z,3.20
2018-09-18T07:34:29.629Z,2.62
2018-09-18T07:36:57.883Z,3.10
2018-09-18T07:39:26.567Z,3.00
2018-09-18T07:41:54.783Z,2.85
2018-09-18T07:44:22.994Z,3.00
2018-09-18T07:46:51.253Z,3.15
2018-09-18T07:49:19.479Z,2.62
2018-09-18T07:51:47.690Z,2.85
2018-09-18T07:54:17.039Z,2.87
2018-09-18T07:56:45.321Z,3.25
2018-09-18T07:59:13.573Z,3.02
2018-09-18T08:01:42.074Z,2.75
2018-09-18T08:04:12.250Z,3.17
2018-09-18T08:06:40.473Z,2.87
2018-09-18T08:09:10.713Z,3.27
2018-09-18T08:11:38.994Z,2.92
2018-09-18T08:14:07.238Z,2.52
2018-09-18T08:16:36.034Z,2.80
2018-09-18T08:19:04.366Z,2.85
2018-09-18T08:21:32.579Z,2.95
2018-09-18T08:24:01.830Z,3.00
2018-09-18T08:26:30.211Z,2.60
2018-09-18T08:28:58.438Z,2.62
2018-09-18T08:31:26.930Z,2.70
2018-09-18T08:33:55.215Z,2.80
2018-09-18T08:36:23.570Z,3.10
2018-09-18T08:38:52.271Z,2.80
2018-09-18T08:41:20.607Z,2.60
2018-09-18T08:43:48.915Z,2.60
2018-09-18T08:46:17.581Z,2.80
2018-09-18T08:48:51.165Z,2.60
2018-09-18T08:51:22.255Z,2.80
2018-09-18T08:53:50.550Z,2.87
2018-09-18T08:56:18.825Z,2.75
2018-09-18T08:58:47.182Z,2.60
2018-09-18T09:01:15.452Z,2.62
2018-09-18T09:03:43.640Z,2.60
2018-09-18T09:06:13.394Z,2.65
2018-09-18T09:08:41.676Z,2.30
2018-09-18T09:11:09.939Z,2.80
2018-09-18T09:13:38.342Z,2.77
2018-09-18T09:16:06.926Z,2.77
2018-09-18T09:18:35.208Z,2.58
2018-09-18T09:21:04.119Z,2.35
2018-09-18T09:23:32.555Z,2.08
2018-09-18T09:26:00.807Z,2.42
2018-09-18T09:28:29.374Z,2.40
2018-09-18T09:30:57.781Z,2.50
2018-09-18T09:33:26.098Z,2.83
2018-09-18T09:35:54.748Z,2.58
2018-09-18T09:38:22.994Z,2.60
2018-09-18T09:40:51.267Z,2.55
2018-09-18T09:43:20.235Z,2.58
2018-09-18T09:45:48.784Z,2.45
2018-09-18T09:48:17.008Z,2.52
2018-09-18T09:50:46.326Z,2.50
2018-09-18T09:53:14.643Z,2.22
2018-09-18T09:55:43.039Z,2.52
2018-09-18T09:58:11.672Z,2.72
2018-09-18T10:00:41.426Z,2.30
2018-09-18T10:03:09.642Z,2.25
2018-09-18T10:05:38.234Z,2.40
2018-09-18T10:08:06.909Z,2.42
2018-09-18T10:10:35.197Z,2.90
2018-09-18T10:13:03.990Z,2.80
2018-09-18T10:15:32.296Z,2.50
2018-09-18T10:18:00.551Z,2.47
2018-09-18T10:20:29.138Z,2.90
2018-09-18T10:22:57.454Z,2.62
2018-09-18T10:25:25.786Z,2.80
2018-09-18T10:27:54.390Z,2.67
2018-09-18T10:30:22.675Z,3.20
2018-09-18T10:32:50.997Z,3.12
2018-09-18T10:35:19.810Z,2.87
2018-09-18T10:37:48.122Z,2.85
2018-09-18T10:40:16.363Z,3.22
2018-09-18T10:42:44.833Z,3.65
2018-09-18T10:45:13.068Z,5.47
2018-09-18T10:47:41.312Z,11.60
2018-09-18T10:50:09.982Z,20.10
2018-09-18T10:52:38.315Z,20.08
2018-09-18T10:55:06.726Z,22.25
2018-09-18T10:57:36.568Z,23.60
2018-09-18T11:00:06.137Z,24.87
2018-09-18T11:02:34.367Z,26.33
2018-09-18T11:05:05.193Z,25.92
2018-09-18T11:07:33.515Z,25.52
2018-09-18T11:10:01.737Z,25.80
2018-09-18T11:12:30.328Z,24.40
2018-09-18T11:14:58.720Z,25.52
2018-09-18T11:17:26.838Z,23.70
2018-09-18T11:19:55.820Z,22.48
2018-09-18T11:22:24.186Z,22.65
2018-09-18T11:24:52.420Z,20.62
2018-09-18T11:27:21.240Z,22.30
2018-09-18T11:29:49.438Z,22.25
2018-09-18T11:32:17.775Z,23.55
2018-09-18T11:34:46.356Z,24.30
2018-09-18T11:37:14.658Z,27.87
2018-09-18T11:39:42.954Z,30.70
2018-09-18T11:42:11.804Z,29.10
2018-09-18T11:44:40.021Z,30.12
2018-09-18T11:47:08.267Z,29.77
2018-09-18T11:49:40.511Z,28.67
2018-09-18T11:52:08.828Z,27.85
2018-09-18T11:54:37.279Z,27.10
2018-09-18T11:57:06.125Z,24.45
2018-09-18T11:59:34.289Z,25.77
2018-09-18T12:02:02.637Z,24.77
2018-09-18T12:04:30.928Z,23.45
2018-09-18T12:07:01.962Z,23.42
2018-09-18T12:09:30.213Z,22.93
2018-09-18T12:11:58.509Z,22.17
2018-09-18T12:14:26.754Z,22.15
2018-09-18T12:16:55.047Z,19.77
2018-09-18T12:19:23.735Z,20.50
2018-09-18T12:21:52.010Z,19.12
2018-09-18T12:24:20.259Z,19.67
2018-09-18T12:26:49.289Z,19.50
2018-09-18T12:29:17.604Z,17.82
2018-09-18T12:31:45.838Z,16.87
2018-09-18T12:34:14.724Z,18.02
2018-09-18T12:36:42.987Z,16.85
2018-09-18T12:39:11.282Z,16.45
2018-09-18T12:41:41.175Z,17.52
2018-09-18T12:44:09.402Z,15.70
2018-09-18T12:46:37.674Z,16.20
2018-09-18T12:49:06.768Z,15.40
2018-09-18T12:51:34.908Z,15.30
2018-09-18T12:54:03.179Z,15.20
2018-09-18T12:56:31.429Z,13.98
2018-09-18T12:58:59.795Z,14.20
2018-09-18T13:01:27.986Z,12.93
2018-09-18T13:03:56.271Z,13.15
2018-09-18T13:06:24.662Z,13.08
2018-09-18T13:08:53.699Z,12.98
2018-09-18T13:11:23.079Z,11.85
2018-09-18T13:13:51.404Z,11.63
2018-09-18T13:16:19.706Z,11.50
2018-09-18T13:18:48.624Z,10.98
2018-09-18T13:21:16.856Z,10.80
2018-09-18T13:23:45.103Z,11.33
2018-09-18T13:26:13.451Z,11.25
2018-09-18T13:28:41.699Z,11.18
2018-09-18T13:31:10.007Z,10.75
2018-09-18T13:33:38.605Z,10.63
2018-09-18T13:36:06.853Z,11.05
2018-09-18T13:38:35.359Z,9.78
2018-09-18T13:41:03.806Z,9.25
2018-09-18T13:43:31.909Z,9.28
2018-09-18T13:46:00.229Z,9.18
2018-09-18T13:48:28.871Z,9.20
2018-09-18T13:50:57.127Z,8.53
2018-09-18T13:53:25.451Z,8.40
2018-09-18T13:55:54.370Z,8.55
2018-09-18T13:58:22.643Z,8.53
2018-09-18T14:00:50.899Z,7.47
2018-09-18T14:03:21.090Z,8.33
2018-09-18T14:05:50.116Z,8.03
2018-09-18T14:08:18.449Z,7.75
2018-09-18T14:10:47.154Z,8.08
2018-09-18T14:13:15.381Z,8.28
2018-09-18T14:15:43.686Z,8.93
2018-09-18T14:18:12.798Z,7.47
2018-09-18T14:20:41.133Z,8.13
2018-09-18T14:23:09.362Z,7.83
2018-09-18T14:25:40.398Z,7.65
2018-09-18T14:28:08.798Z,7.85
2018-09-18T14:30:37.139Z,7.55
2018-09-18T14:33:05.499Z,7.75
2018-09-18T14:35:33.769Z,7.40
2018-09-18T14:38:02.093Z,7.37
2018-09-18T14:40:30.464Z,7.60
2018-09-18T14:42:58.728Z,7.25
2018-09-18T14:45:27.061Z,7.05
2018-09-18T14:47:56.008Z,6.90
2018-09-18T14:50:24.247Z,7.20
2018-09-18T14:52:52.551Z,7.15
2018-09-18T14:55:21.153Z,7.08
2018-09-18T14:57:49.529Z,6.95
2018-09-18T15:00:17.815Z,6.95
2018-09-18T15:02:46.102Z,6.72
2018-09-18T15:05:14.346Z,6.22
2018-09-18T15:07:42.575Z,6.58
2018-09-18T15:10:11.832Z,6.00
2018-09-18T15:12:41.354Z,6.78
2018-09-18T15:15:09.586Z,6.55
2018-09-18T15:17:38.503Z,6.30
2018-09-18T15:20:06.744Z,6.67
2018-09-18T15:22:34.989Z,6.45
2018-09-18T15:25:03.537Z,6.25
2018-09-18T15:27:31.798Z,6.62
2018-09-18T15:30:00.015Z,6.90
2018-09-18T15:32:29.032Z,5.95
2018-09-18T15:34:57.400Z,6.50
2018-09-18T15:37:25.654Z,5.67
2018-09-18T15:39:53.943Z,6.53
2018-09-18T15:42:22.161Z,6.58
2018-09-18T15:44:50.441Z,5.87
2018-09-18T15:47:18.722Z,6.42
2018-09-18T15:49:47.041Z,6.65
2018-09-18T15:52:15.267Z,6.53
2018-09-18T15:54:43.895Z,6.67
2018-09-18T15:57:12.246Z,6.60
2018-09-18T15:59:40.680Z,7.05
2018-09-18T16:02:09.658Z,6.35
2018-09-18T16:04:38.996Z,6.12
2018-09-18T16:07:07.244Z,7.50
2018-09-18T16:09:35.522Z,6.50
2018-09-18T16:12:03.773Z,6.60
2018-09-18T16:14:32.768Z,6.75
2018-09-18T16:17:01.994Z,6.17
2018-09-18T16:19:30.272Z,6.40
2018-09-18T16:21:58.502Z,6.37
2018-09-18T16:24:26.990Z,6.35
2018-09-18T16:26:55.254Z,6.80
2018-09-18T16:29:23.718Z,6.80
2018-09-18T16:31:52.339Z,7.92
2018-09-18T16:34:20.862Z,7.70
2018-09-18T16:36:49.438Z,7.05
2018-09-18T16:39:19.837Z,8.88
2018-09-18T16:41:48.182Z,8.90
2018-09-18T16:44:16.548Z,9.63
2018-09-18T16:46:45.835Z,10.90
2018-09-18T16:49:14.032Z,11.00
2018-09-18T16:51:42.281Z,10.60
2018-09-18T16:54:10.854Z,10.98
2018-09-18T16:56:39.062Z,9.93
2018-09-18T16:59:07.399Z,9.40
2018-09-18T17:01:36.211Z,9.00
2018-09-18T17:04:07.220Z,9.83
2018-09-18T17:06:35.598Z,9.55
2018-09-18T17:09:05.922Z,9.28
2018-09-18T17:11:34.208Z,9.60
2018-09-18T17:14:02.447Z,8.68
2018-09-18T17:16:31.496Z,8.73
2018-09-18T17:18:59.723Z,8.28
2018-09-18T17:21:27.987Z,7.72
2018-09-18T17:23:56.403Z,8.53
2018-09-18T17:26:24.724Z,7.55
2018-09-18T17:28:53.438Z,7.70
2018-09-18T17:31:21.954Z,7.72
2018-09-18T17:33:50.263Z,7.35
2018-09-18T17:36:18.551Z,7.37
2018-09-18T17:38:48.367Z,7.60
2018-09-18T17:41:16.625Z,7.33
2018-09-18T17:43:45.054Z,7.30
2018-09-18T17:46:13.475Z,7.70
2018-09-18T17:48:41.881Z,7.55
2018-09-18T17:51:10.075Z,7.03
2018-09-18T17:53:38.755Z,7.60
2018-09-18T17:56:06.964Z,7.80
2018-09-18T17:58:35.415Z,7.62
2018-09-18T18:01:04.259Z,7.45
2018-09-18T18:03:32.557Z,7.08
2018-09-18T18:06:02.832Z,7.28
2018-09-18T18:08:31.283Z,6.85
2018-09-18T18:10:59.612Z,7.10
2018-09-18T18:13:28.199Z,6.95
2018-09-18T18:15:56.470Z,6.95
2018-09-18T18:18:24.982Z,6.70
2018-09-18T18:20:55.157Z,7.42
2018-09-18T18:23:23.482Z,6.92
2018-09-18T18:25:51.749Z,7.05
2018-09-18T18:28:20.411Z,6.30
2018-09-18T18:30:48.688Z,6.97
2018-09-18T18:33:17.017Z,6.22
2018-09-18T18:35:45.481Z,6.37
2018-09-18T18:38:13.751Z,7.08
2018-09-18T18:40:42.169Z,6.40
2018-09-18T18:43:10.473Z,6.05
2018-09-18T18:45:38.765Z,6.05
2018-09-18T18:48:07.370Z,6.12
2018-09-18T18:50:35.724Z,6.30
2018-09-18T18:53:03.987Z,6.45
2018-09-18T18:55:32.397Z,6.40
2018-09-18T18:58:01.574Z,6.10
2018-09-18T19:00:29.887Z,6.12
2018-09-18T19:02:58.200Z,6.58
2018-09-18T19:05:26.549Z,5.78
2018-09-18T19:07:56.258Z,5.90
2018-09-18T19:10:24.665Z,5.97
2018-09-18T19:12:53.103Z,6.65
2018-09-18T19:15:21.387Z,5.55
2018-09-18T19:17:49.659Z,5.78
2018-09-18T19:20:18.739Z,5.70
2018-09-18T19:22:47.161Z,5.87
2018-09-18T19:25:15.449Z,5.67
2018-09-18T19:27:43.868Z,5.92
2018-09-18T19:30:12.240Z,6.00
2018-09-18T19:32:40.777Z,5.50
2018-09-18T19:35:09.321Z,5.15
2018-09-18T19:37:37.626Z,5.55
2018-09-18T19:40:06.185Z,5.45
2018-09-18T19:42:35.321Z,5.33
2018-09-18T19:45:03.797Z,5.50
2018-09-18T19:47:32.088Z,5.55
2018-09-18T19:50:00.619Z,5.37
2018-09-18T19:52:28.915Z,5.65
2018-09-18T19:54:57.182Z,5.28
2018-09-18T19:57:25.871Z,5.45
2018-09-18T19:59:54.179Z,4.97
2018-09-18T20:02:22.466Z,5.47
2018-09-18T20:04:53.043Z,5.33
2018-09-18T20:07:21.628Z,5.47
2018-09-18T20:09:50.688Z,5.60
2018-09-18T20:12:19.104Z,6.05
2018-09-18T20:14:47.409Z,5.75
2018-09-18T20:17:15.638Z,5.28
2018-09-18T20:19:44.578Z,4.80
2018-09-18T20:22:12.911Z,5.42
2018-09-18T20:24:41.178Z,5.00
2018-09-18T20:27:10.604Z,5.10
2018-09-18T20:29:38.952Z,5.33
2018-09-18T20:32:07.266Z,4.80
2018-09-18T20:34:36.057Z,5.05
2018-09-18T20:37:04.328Z,5.00
2018-09-18T20:39:32.742Z,5.45
2018-09-18T20:42:02.136Z,4.60
2018-09-18T20:44:30.382Z,4.47
2018-09-18T20:46:58.910Z,5.08
2018-09-18T20:49:27.663Z,5.12
2018-09-18T20:51:55.901Z,5.22
2018-09-18T20:54:24.150Z,4.80
2018-09-18T20:56:52.688Z,4.80
2018-09-18T20:59:20.995Z,4.22
2018-09-18T21:01:49.316Z,4.95
2018-09-18T21:04:19.047Z,4.45
2018-09-18T21:06:47.302Z,4.58
2018-09-18T21:09:15.548Z,4.60
2018-09-18T21:11:45.518Z,4.50
2018-09-18T21:14:13.763Z,4.67
2018-09-18T21:16:42.013Z,4.65
2018-09-18T21:19:11.068Z,4.58
2018-09-18T21:21:39.392Z,4.90
2018-09-18T21:24:07.631Z,4.53
2018-09-18T21:26:36.865Z,5.15
2018-09-18T21:29:05.336Z,4.47
2018-09-18T21:31:33.606Z,4.22
2018-09-18T21:34:02.591Z,5.05
2018-09-18T21:36:30.829Z,4.40
2018-09-18T21:38:59.112Z,5.22
2018-09-18T21:41:27.525Z,4.25
2018-09-18T21:43:55.748Z,4.70
2018-09-18T21:46:24.122Z,4.72
2018-09-18T21:48:53.630Z,4.47
2018-09-18T21:51:21.852Z,4.87
2018-09-18T21:53:50.158Z,4.70
2018-09-18T21:56:18.754Z,4.40
2018-09-18T21:58:46.974Z,4.70
2018-09-18T22:01:15.298Z,4.17
2018-09-18T22:03:43.754Z,4.10
2018-09-18T22:06:12.059Z,4.20
2018-09-18T22:08:40.283Z,4.20
2018-09-18T22:11:09.482Z,4.30
2018-09-18T22:13:40.001Z,4.37
2018-09-18T22:16:08.231Z,4.20
2018-09-18T22:18:36.494Z,4.58
2018-09-18T22:21:04.709Z,4.25
2018-09-18T22:23:33.527Z,4.50
2018-09-18T22:26:01.761Z,4.55
2018-09-18T22:28:30.140Z,4.17
2018-09-18T22:30:59.702Z,4.30
2018-09-18T22:33:28.002Z,4.20
2018-09-18T22:35:56.233Z,4.22
2018-09-18T22:38:24.677Z,4.00
2018-09-18T22:40:52.906Z,5.05
2018-09-18T22:43:21.201Z,4.30
2018-09-18T22:45:49.794Z,4.22
2018-09-18T22:48:18.206Z,4.87
2018-09-18T22:50:47.434Z,4.55
2018-09-18T22:53:16.543Z,4.50
2018-09-18T22:55:44.889Z,4.08
2018-09-18T22:58:13.113Z,4.30
2018-09-18T23:00:41.354Z,4.42
2018-09-18T23:03:10.046Z,4.50
2018-09-18T23:05:39.790Z,4.12
2018-09-18T23:08:08.023Z,4.42
2018-09-18T23:10:36.242Z,4.33
2018-09-18T23:13:04.628Z,4.72
2018-09-18T23:15:32.865Z,4.08
2018-09-18T23:18:01.074Z,4.47
2018-09-18T23:20:30.657Z,4.50
2018-09-18T23:22:58.887Z,4.40
2018-09-18T23:25:27.174Z,4.10
2018-09-18T23:27:55.795Z,3.87
2018-09-18T23:30:24.020Z,4.20
2018-09-18T23:32:52.237Z,4.60
2018-09-18T23:35:21.133Z,5.05
2018-09-18T23:37:49.380Z,4.53
2018-09-18T23:40:17.697Z,4.35
2018-09-18T23:42:46.706Z,4.30
2018-09-18T23:45:15.021Z,4.30
2018-09-18T23:47:43.329Z,4.47
2018-09-18T23:50:11.617Z,4.30
2018-09-18T23:52:40.043Z,4.60
2018-09-18T23:55:08.545Z,4.65
2018-09-18T23:57:37.267Z,4.37
